createdAt,value
2023-03-04T00:02:17.241Z,44.20
2023-03-04T00:04:48.910Z,35.40
2023-03-04T00:07:20.677Z,28.50
2023-03-04T00:09:52.215Z,25.88
2023-03-04T00:12:23.719Z,24.50
2023-03-04T00:14:55.327Z,23.90
2023-03-04T00:17:26.892Z,24.90
2023-03-04T00:19:59.986Z,24.52
2023-03-04T00:22:31.491Z,23.30
2023-03-04T00:25:03.022Z,24.63
2023-03-04T00:27:34.814Z,28.23
2023-03-04T00:30:07.616Z,29.85
2023-03-04T00:32:39.418Z,25.23
2023-03-04T00:35:11.005Z,23.42
2023-03-04T00:37:42.658Z,25.63
2023-03-04T00:40:14.361Z,23.80
2023-03-04T00:42:45.956Z,25.63
2023-03-04T00:45:17.483Z,23.53
2023-03-04T00:47:49.127Z,22.77
2023-03-04T00:50:20.979Z,23.75
2023-03-04T00:52:52.551Z,26.88
2023-03-04T00:55:24.054Z,25.13
2023-03-04T00:57:55.630Z,23.80
2023-03-04T01:00:27.237Z,27.17
2023-03-04T01:02:58.861Z,26.25
2023-03-04T01:05:30.343Z,25.02
2023-03-04T01:08:02.904Z,24.10
2023-03-04T01:10:34.461Z,20.90
2023-03-04T01:13:06.280Z,22.55
2023-03-04T01:15:37.780Z,21.77
2023-03-04T01:18:09.625Z,22.80
2023-03-04T01:20:41.165Z,21.90
2023-03-04T01:23:12.863Z,22.70
2023-03-04T01:25:44.326Z,23.77
2023-03-04T01:28:15.924Z,27.50
2023-03-04T01:30:47.684Z,23.25
2023-03-04T01:33:19.345Z,23.10
2023-03-04T01:35:50.924Z,20.90
2023-03-04T01:38:22.637Z,21.30
2023-03-04T01:40:54.457Z,20.83
2023-03-04T01:43:28.801Z,20.50
2023-03-04T01:46:00.476Z,21.08
2023-03-04T01:48:37.013Z,21.25
2023-03-04T01:51:14.306Z,20.52
2023-03-04T01:53:53.416Z,20.42
2023-03-04T01:56:29.537Z,20.52
2023-03-04T01:59:08.005Z,22.20
2023-03-04T02:01:41.123Z,20.63
2023-03-04T02:04:13.974Z,20.17
2023-03-04T02:06:46.857Z,22.15
2023-03-04T02:09:19.350Z,22.33
2023-03-04T02:11:52.016Z,21.08
2023-03-04T02:14:23.707Z,20.75
2023-03-04T02:16:55.259Z,22.35
2023-03-04T02:19:36.966Z,21.27
2023-03-04T02:22:08.638Z,20.67
2023-03-04T02:24:50.585Z,21.42
2023-03-04T02:27:22.297Z,22.42
2023-03-04T02:29:53.814Z,25.55
2023-03-04T02:32:25.478Z,22.13
2023-03-04T02:34:57.045Z,22.42
2023-03-04T02:37:28.639Z,23.00
2023-03-04T02:40:00.252Z,24.38
2023-03-04T02:42:31.805Z,21.02
2023-03-04T02:45:05.811Z,20.88
2023-03-04T02:47:37.735Z,21.30
2023-03-04T02:50:10.091Z,19.65
2023-03-04T02:55:12.953Z,17.20
2023-03-04T02:57:46.582Z,18.63
2023-03-04T03:00:18.149Z,20.13
2023-03-04T03:02:49.705Z,21.00
2023-03-04T03:05:21.222Z,22.45
2023-03-04T03:07:52.837Z,19.77
2023-03-04T03:10:25.123Z,21.45
2023-03-04T03:12:56.688Z,20.95
2023-03-04T03:15:28.361Z,23.33
2023-03-04T03:17:59.916Z,21.27
2023-03-04T03:20:31.693Z,21.25
2023-03-04T03:23:04.396Z,21.52
2023-03-04T03:25:35.990Z,21.95
2023-03-04T03:28:07.573Z,22.20
2023-03-04T03:30:39.215Z,21.90
2023-03-04T03:33:10.737Z,22.52
2023-03-04T03:35:42.245Z,21.03
2023-03-04T03:38:14.811Z,23.60
2023-03-04T03:40:46.847Z,20.70
2023-03-04T03:43:18.415Z,21.73
2023-03-04T03:45:51.873Z,22.20
2023-03-04T03:48:23.724Z,21.17
2023-03-04T03:50:55.246Z,21.42
2023-03-04T03:53:26.723Z,20.50
2023-03-04T03:55:59.057Z,21.63
2023-03-04T03:58:30.531Z,19.52
2023-03-04T04:01:02.067Z,20.07
2023-03-04T04:03:33.615Z,20.67
2023-03-04T04:06:05.516Z,22.15
2023-03-04T04:08:37.062Z,21.00
2023-03-04T04:11:10.585Z,20.87
2023-03-04T04:13:42.148Z,19.73
2023-03-04T04:16:13.877Z,20.70
2023-03-04T04:18:45.506Z,20.13
2023-03-04T04:21:17.298Z,18.95
2023-03-04T04:23:48.912Z,21.10
2023-03-04T04:26:20.483Z,21.00
2023-03-04T04:28:52.063Z,19.95
2023-03-04T04:31:23.729Z,19.98
2023-03-04T04:33:55.230Z,19.30
2023-03-04T04:36:27.334Z,19.93
2023-03-04T04:38:58.998Z,19.50
2023-03-04T04:41:36.677Z,19.17
2023-03-04T04:44:10.179Z,20.08
2023-03-04T04:46:42.637Z,21.15
2023-03-04T04:49:14.508Z,21.63
2023-03-04T04:51:46.404Z,20.20
2023-03-04T04:54:17.904Z,21.40
2023-03-04T04:56:49.438Z,20.17
2023-03-04T04:59:21.365Z,20.90
2023-03-04T05:01:52.857Z,22.42
2023-03-04T05:04:24.419Z,20.33
2023-03-04T05:06:55.901Z,21.20
2023-03-04T05:09:27.367Z,23.77
2023-03-04T05:11:59.094Z,22.13
2023-03-04T05:14:30.626Z,21.63
2023-03-04T05:17:02.128Z,22.13
2023-03-04T05:19:34.592Z,21.00
2023-03-04T05:24:37.635Z,20.17
2023-03-04T05:27:09.149Z,22.53
2023-03-04T05:29:40.618Z,21.93
2023-03-04T05:32:12.487Z,21.60
2023-03-04T05:34:44.064Z,20.45
2023-03-04T05:37:15.576Z,22.10
2023-03-04T05:39:47.004Z,21.63
2023-03-04T05:42:18.552Z,20.70
2023-03-04T05:44:50.042Z,20.17
2023-03-04T05:47:21.505Z,21.70
2023-03-04T05:49:53.047Z,20.40
2023-03-04T05:52:24.635Z,21.05
2023-03-04T05:54:56.174Z,21.67
2023-03-04T05:57:27.688Z,21.27
2023-03-04T05:59:59.166Z,22.43
2023-03-04T06:02:30.744Z,20.87
2023-03-04T06:05:03.113Z,23.42
2023-03-04T06:10:07.748Z,21.10
2023-03-04T06:12:40.717Z,21.63
2023-03-04T06:15:14.102Z,22.83
2023-03-04T06:17:46.713Z,22.45
2023-03-04T06:20:18.490Z,21.35
2023-03-04T06:22:50.409Z,20.30
2023-03-04T06:25:22.169Z,21.48
2023-03-04T06:27:55.325Z,22.90
2023-03-04T06:30:27.363Z,21.25
2023-03-04T06:32:59.281Z,21.23
2023-03-04T06:35:32.215Z,21.83
2023-03-04T06:38:03.861Z,22.05
2023-03-04T06:40:35.730Z,22.45
2023-03-04T06:43:07.593Z,23.98
2023-03-04T06:45:39.422Z,21.70
2023-03-04T06:48:12.009Z,22.58
2023-03-04T06:50:43.649Z,23.02
2023-03-04T06:53:15.421Z,23.23
2023-03-04T06:55:48.043Z,21.98
2023-03-04T06:58:19.605Z,23.33
2023-03-04T07:00:51.460Z,21.85
2023-03-04T07:03:23.606Z,22.45
2023-03-04T07:05:55.198Z,19.98
2023-03-04T07:08:27.097Z,21.55
2023-03-04T07:10:58.612Z,22.70
2023-03-04T07:13:30.183Z,22.50
2023-03-04T07:16:01.943Z,21.70
2023-03-04T07:18:34.458Z,21.85
2023-03-04T07:21:07.297Z,23.83
2023-03-04T07:23:39.352Z,24.38
2023-03-04T07:26:11.177Z,22.70
2023-03-04T07:28:43.533Z,25.35
2023-03-04T07:34:00.281Z,22.35
2023-03-04T07:36:39.099Z,23.38
2023-03-04T07:39:13.405Z,23.65
2023-03-04T07:41:44.912Z,22.60
2023-03-04T07:44:16.458Z,24.07
2023-03-04T07:46:47.950Z,25.03
2023-03-04T07:49:19.497Z,22.63
2023-03-04T07:51:51.019Z,23.13
2023-03-04T07:54:22.709Z,25.13
2023-03-04T07:56:54.417Z,24.92
2023-03-04T07:59:25.949Z,25.33
2023-03-04T08:01:57.453Z,25.53
2023-03-04T08:04:29.004Z,25.90
2023-03-04T08:07:00.545Z,22.25
2023-03-04T08:09:32.091Z,25.60
2023-03-04T08:12:03.826Z,23.23
2023-03-04T08:14:35.652Z,25.35
2023-03-04T08:17:07.370Z,24.23
2023-03-04T08:19:38.932Z,25.08
2023-03-04T08:22:10.569Z,23.67
2023-03-04T08:24:42.079Z,24.70
2023-03-04T08:27:13.639Z,23.75
2023-03-04T08:29:45.103Z,24.87
2023-03-04T08:32:16.811Z,23.33
2023-03-04T08:34:48.417Z,22.40
2023-03-04T08:37:19.884Z,27.30
2023-03-04T08:39:51.497Z,27.02
2023-03-04T08:42:24.138Z,23.08
2023-03-04T08:44:55.667Z,23.42
2023-03-04T08:47:27.100Z,25.17
2023-03-04T08:49:58.651Z,23.55
2023-03-04T08:52:30.786Z,22.38
2023-03-04T08:55:02.706Z,23.42
2023-03-04T08:57:34.184Z,22.65
2023-03-04T09:00:06.403Z,24.23
2023-03-04T09:02:37.931Z,23.85
2023-03-04T09:05:09.772Z,22.95
2023-03-04T09:07:41.284Z,24.17
2023-03-04T09:10:13.268Z,22.27
2023-03-04T09:12:44.886Z,24.65
2023-03-04T09:15:16.554Z,23.35
2023-03-04T09:17:48.089Z,23.20
2023-03-04T09:20:23.277Z,21.97
2023-03-04T09:22:54.910Z,21.15
2023-03-04T09:25:26.427Z,22.38
2023-03-04T09:27:58.142Z,21.10
2023-03-04T09:30:30.400Z,19.60
2023-03-04T09:33:02.062Z,20.77
2023-03-04T09:35:33.761Z,18.65
2023-03-04T09:38:06.117Z,19.98
2023-03-04T09:43:33.739Z,17.38
2023-03-04T09:46:11.512Z,19.60
2023-03-04T09:48:50.801Z,19.80
2023-03-04T09:51:25.506Z,19.70
2023-03-04T09:54:27.258Z,19.52
2023-03-04T09:57:17.244Z,20.00
2023-03-04T10:00:00.903Z,20.10
2023-03-04T10:02:41.063Z,20.60
2023-03-04T10:05:20.774Z,20.60
2023-03-04T10:08:05.451Z,19.40
2023-03-04T10:10:44.163Z,19.10
2023-03-04T10:13:23.366Z,20.50
2023-03-04T10:15:57.032Z,18.48
2023-03-04T10:18:43.850Z,19.50
2023-03-04T10:21:32.360Z,18.00
2023-03-04T10:24:13.567Z,19.77
2023-03-04T10:26:49.422Z,18.88
2023-03-04T10:29:24.353Z,17.33
2023-03-04T10:31:56.523Z,17.95
2023-03-04T10:34:28.217Z,15.82
2023-03-04T10:37:05.619Z,17.10
2023-03-04T10:39:55.202Z,14.98
2023-03-04T10:42:30.266Z,17.00
2023-03-04T10:45:01.820Z,14.95
2023-03-04T10:47:34.613Z,17.37
2023-03-04T10:50:06.762Z,18.30
2023-03-04T10:52:38.217Z,18.00
2023-03-04T10:55:41.868Z,15.70
2023-03-04T10:58:18.799Z,17.20
2023-03-04T11:01:03.767Z,17.45
2023-03-04T11:03:37.270Z,17.38
2023-03-04T11:06:21.100Z,17.50
2023-03-04T11:09:01.079Z,19.35
2023-03-04T11:11:44.767Z,16.88
2023-03-04T11:14:30.394Z,18.58
2023-03-04T11:17:45.606Z,19.33
2023-03-04T11:20:33.900Z,17.75
2023-03-04T11:23:20.016Z,19.15
2023-03-04T11:26:13.539Z,18.13
2023-03-04T11:28:58.319Z,18.23
2023-03-04T11:31:48.946Z,20.88
2023-03-04T11:34:26.755Z,18.80
2023-03-04T11:37:08.282Z,20.00
2023-03-04T11:39:46.305Z,18.38
2023-03-04T11:42:25.076Z,19.00
2023-03-04T11:44:56.991Z,19.75
2023-03-04T11:47:56.836Z,18.42
2023-03-04T11:50:57.100Z,20.15
2023-03-04T11:54:11.580Z,18.00
2023-03-04T11:56:52.201Z,17.55
2023-03-04T12:00:00.865Z,16.92
2023-03-04T12:02:41.377Z,18.23
2023-03-04T12:05:38.723Z,18.02
2023-03-04T12:08:26.535Z,17.80
2023-03-04T12:11:08.129Z,17.15
2023-03-04T12:14:21.544Z,17.07
2023-03-04T12:17:14.831Z,16.15
2023-03-04T12:20:01.892Z,17.15
2023-03-04T12:22:48.455Z,18.58
2023-03-04T12:25:44.406Z,17.83
2023-03-04T12:28:52.192Z,16.48
2023-03-04T12:31:34.930Z,15.93
2023-03-04T12:34:43.554Z,15.27
2023-03-04T12:37:30.340Z,15.98
2023-03-04T12:40:23.328Z,18.67
2023-03-04T12:43:22.090Z,15.30
2023-03-04T12:46:11.742Z,16.88
2023-03-04T12:48:56.839Z,15.95
2023-03-04T12:51:40.863Z,15.77
2023-03-04T12:54:26.000Z,14.90
2023-03-04T12:57:03.479Z,16.33
2023-03-04T12:59:59.254Z,16.98
2023-03-04T13:02:42.731Z,14.65
2023-03-04T13:05:24.475Z,15.05
2023-03-04T13:07:59.686Z,17.00
2023-03-04T13:10:31.613Z,16.52
2023-03-04T13:13:04.211Z,15.23
2023-03-04T13:15:38.276Z,16.23
2023-03-04T13:18:31.375Z,16.33
2023-03-04T13:21:07.793Z,15.88
2023-03-04T13:23:39.886Z,16.48
2023-03-04T13:26:18.277Z,15.27
2023-03-04T13:28:55.281Z,14.43
2023-03-04T13:31:27.091Z,13.60
2023-03-04T13:34:00.290Z,14.50
2023-03-04T13:36:54.895Z,14.35
2023-03-04T13:39:28.561Z,14.05
2023-03-04T13:42:00.972Z,16.20
2023-03-04T13:44:56.875Z,14.07
2023-03-04T13:47:48.893Z,14.63
2023-03-04T13:50:34.069Z,16.73
2023-03-04T13:53:30.613Z,14.27
2023-03-04T13:56:07.061Z,15.52
2023-03-04T13:58:39.635Z,14.43
2023-03-04T14:01:25.444Z,14.48
2023-03-04T14:03:57.446Z,13.32
2023-03-04T14:06:31.300Z,14.50
2023-03-04T14:09:16.552Z,13.48
2023-03-04T14:11:49.847Z,13.55
2023-03-04T14:14:24.550Z,13.95
2023-03-04T14:17:02.777Z,13.95
2023-03-04T14:19:43.060Z,15.02
2023-03-04T14:22:20.464Z,13.93
2023-03-04T14:25:19.955Z,13.48
2023-03-04T14:28:05.599Z,13.95
2023-03-04T14:30:43.601Z,14.35
2023-03-04T14:33:19.568Z,14.05
2023-03-04T14:35:53.577Z,13.60
2023-03-04T14:38:31.198Z,12.93
2023-03-04T14:41:10.728Z,12.60
2023-03-04T14:44:04.075Z,13.05
2023-03-04T14:47:00.553Z,11.88
2023-03-04T14:49:39.475Z,12.82
2023-03-04T14:52:40.107Z,11.77
2023-03-04T14:55:14.860Z,11.98
2023-03-04T14:58:08.194Z,10.30
2023-03-04T15:00:43.190Z,10.73
2023-03-04T15:03:19.319Z,10.45
2023-03-04T15:05:55.074Z,9.88
2023-03-04T15:08:35.664Z,10.05
2023-03-04T15:11:08.417Z,9.75
2023-03-04T15:13:41.562Z,11.90
2023-03-04T15:16:14.892Z,10.32
2023-03-04T15:18:55.314Z,10.15
2023-03-04T15:21:31.722Z,11.05
2023-03-04T15:24:04.741Z,10.52
2023-03-04T15:26:41.013Z,10.10
2023-03-04T15:29:18.064Z,10.18
2023-03-04T15:31:49.635Z,11.10
2023-03-04T15:34:21.316Z,9.43
2023-03-04T15:36:53.857Z,10.95
2023-03-04T15:39:27.567Z,10.63
2023-03-04T15:42:03.532Z,10.02
2023-03-04T15:44:35.078Z,10.63
2023-03-04T15:47:08.811Z,9.88
2023-03-04T15:49:42.496Z,11.23
2023-03-04T15:52:17.892Z,10.93
2023-03-04T15:54:49.671Z,10.32
2023-03-04T15:57:24.583Z,10.68
2023-03-04T15:59:56.118Z,11.15
2023-03-04T16:02:27.721Z,10.70
2023-03-04T16:04:59.565Z,10.88
2023-03-04T16:07:31.253Z,10.82
2023-03-04T16:10:08.898Z,10.73
2023-03-04T16:12:40.494Z,10.27
2023-03-04T16:15:18.761Z,10.05
2023-03-04T16:17:50.892Z,10.80
2023-03-04T16:20:27.464Z,9.80
2023-03-04T16:23:00.857Z,9.95
2023-03-04T16:25:32.449Z,9.75
2023-03-04T16:28:04.186Z,9.50
2023-03-04T16:30:35.759Z,10.85
2023-03-04T16:33:07.320Z,9.93
2023-03-04T16:35:39.523Z,10.60
2023-03-04T16:38:21.152Z,11.20
2023-03-04T16:40:53.027Z,9.45
2023-03-04T16:43:24.916Z,10.13
2023-03-04T16:45:56.459Z,10.80
2023-03-04T16:48:27.971Z,10.70
2023-03-04T16:50:59.553Z,10.90
2023-03-04T16:53:37.139Z,10.15
2023-03-04T16:56:17.046Z,9.88
2023-03-04T16:58:49.234Z,10.43
2023-03-04T17:01:23.088Z,10.85
2023-03-04T17:03:55.643Z,9.30
2023-03-04T17:06:28.154Z,9.40
2023-03-04T17:09:02.213Z,10.35
2023-03-04T17:11:34.125Z,10.15
2023-03-04T17:14:05.627Z,10.40
2023-03-04T17:16:37.266Z,10.07
2023-03-04T17:19:08.824Z,11.35
2023-03-04T17:21:40.656Z,11.60
2023-03-04T17:24:12.232Z,11.27
2023-03-04T17:26:43.798Z,10.63
2023-03-04T17:29:15.618Z,13.90
2023-03-04T17:31:47.197Z,11.85
2023-03-04T17:34:19.047Z,10.85
2023-03-04T17:36:50.657Z,10.85
2023-03-04T17:39:22.165Z,11.60
2023-03-04T17:41:53.683Z,10.87
2023-03-04T17:44:25.242Z,10.43
2023-03-04T17:46:57.614Z,11.43
2023-03-04T17:52:02.901Z,11.43
2023-03-04T17:54:36.058Z,11.30
2023-03-04T17:57:10.047Z,11.43
2023-03-04T17:59:41.648Z,12.40
2023-03-04T18:02:16.440Z,12.07
2023-03-04T18:04:50.109Z,11.73
2023-03-04T18:07:21.693Z,11.70
2023-03-04T18:09:53.187Z,13.65
2023-03-04T18:12:24.793Z,11.23
2023-03-04T18:14:56.368Z,12.93
2023-03-04T18:17:27.940Z,12.80
2023-03-04T18:19:59.462Z,14.05
2023-03-04T18:22:31.343Z,14.10
2023-03-04T18:25:03.030Z,11.30
2023-03-04T18:27:34.563Z,12.32
2023-03-04T18:30:10.809Z,10.77
2023-03-04T18:32:51.895Z,12.30
2023-03-04T18:35:24.034Z,11.03
2023-03-04T18:37:55.550Z,12.70
2023-03-04T18:40:30.919Z,11.87
2023-03-04T18:43:04.827Z,14.07
2023-03-04T18:45:36.384Z,12.35
2023-03-04T18:48:08.379Z,12.40
2023-03-04T18:50:39.905Z,13.25
2023-03-04T18:53:11.636Z,12.50
2023-03-04T18:55:43.216Z,13.68
2023-03-04T18:58:14.723Z,12.60
2023-03-04T19:00:46.567Z,12.40
2023-03-04T19:03:18.134Z,12.38
2023-03-04T19:05:49.680Z,11.48
2023-03-04T19:08:21.218Z,11.63
2023-03-04T19:10:52.845Z,12.47
2023-03-04T19:13:24.852Z,12.13
2023-03-04T19:15:56.357Z,13.02
2023-03-04T19:18:29.125Z,11.97
2023-03-04T19:21:00.793Z,13.02
2023-03-04T19:23:32.398Z,12.40
2023-03-04T19:26:06.897Z,12.20
2023-03-04T19:28:38.407Z,13.15
2023-03-04T19:31:11.119Z,12.27
2023-03-04T19:33:43.022Z,11.35
2023-03-04T19:36:14.562Z,11.00
2023-03-04T19:38:46.936Z,11.23
2023-03-04T19:41:18.663Z,12.02
2023-03-04T19:43:50.691Z,11.75
2023-03-04T19:46:22.308Z,11.75
2023-03-04T19:48:53.961Z,12.20
2023-03-04T19:51:28.028Z,10.70
2023-03-04T19:54:00.772Z,11.20
2023-03-04T19:56:32.240Z,11.55
2023-03-04T19:59:04.882Z,13.07
2023-03-04T20:01:37.603Z,13.55
2023-03-04T20:04:15.433Z,13.15
2023-03-04T20:06:49.202Z,14.75
2023-03-04T20:09:20.814Z,13.48
2023-03-04T20:11:58.774Z,14.15
2023-03-04T20:14:32.717Z,11.27
2023-03-04T20:17:07.035Z,12.98
2023-03-04T20:19:38.813Z,13.13
2023-03-04T20:22:11.113Z,13.57
2023-03-04T20:24:42.971Z,13.60
2023-03-04T20:27:15.512Z,12.57
2023-03-04T20:32:21.377Z,13.05
2023-03-04T20:34:57.001Z,12.93
2023-03-04T20:37:28.722Z,12.38
2023-03-04T20:40:00.314Z,13.00
2023-03-04T20:42:32.249Z,12.38
2023-03-04T20:45:04.926Z,13.50
2023-03-04T20:47:39.631Z,13.73
2023-03-04T20:50:12.792Z,13.73
2023-03-04T20:52:46.003Z,15.18
2023-03-04T20:55:17.963Z,12.73
2023-03-04T20:57:49.507Z,12.98
2023-03-04T21:00:21.391Z,14.68
2023-03-04T21:02:52.885Z,13.43
2023-03-04T21:05:24.346Z,14.27
2023-03-04T21:07:55.993Z,13.63
2023-03-04T21:10:28.015Z,14.55
2023-03-04T21:12:59.582Z,13.20
2023-03-04T21:15:31.542Z,12.57
2023-03-04T21:18:03.304Z,15.23
2023-03-04T21:20:34.860Z,14.05
2023-03-04T21:23:06.591Z,14.07
2023-03-04T21:25:38.083Z,15.73
2023-03-04T21:28:09.503Z,15.13
2023-03-04T21:30:41.606Z,13.85
2023-03-04T21:33:18.745Z,15.68
2023-03-04T21:35:50.455Z,14.55
2023-03-04T21:38:21.968Z,14.98
2023-03-04T21:40:53.531Z,15.70
2023-03-04T21:43:25.023Z,14.50
2023-03-04T21:45:58.563Z,14.20
2023-03-04T21:48:30.071Z,14.80
2023-03-04T21:51:07.162Z,15.07
2023-03-04T21:53:39.543Z,15.70
2023-03-04T21:58:43.231Z,13.48
2023-03-04T22:01:21.367Z,14.80
2023-03-04T22:03:53.606Z,13.65
2023-03-04T22:06:26.656Z,15.50
2023-03-04T22:08:58.517Z,17.17
2023-03-04T22:11:30.724Z,14.73
2023-03-04T22:14:03.188Z,16.25
2023-03-04T22:16:39.841Z,15.63
2023-03-04T22:19:17.090Z,13.30
2023-03-04T22:21:48.652Z,15.18
2023-03-04T22:24:20.918Z,14.50
2023-03-04T22:26:52.452Z,14.68
2023-03-04T22:29:24.146Z,14.20
2023-03-04T22:31:55.803Z,16.08
2023-03-04T22:34:27.438Z,14.63
2023-03-04T22:36:59.071Z,14.88
2023-03-04T22:39:30.637Z,16.30
2023-03-04T22:42:02.225Z,17.40
2023-03-04T22:44:34.579Z,16.20
2023-03-04T22:49:39.646Z,14.48
2023-03-04T22:52:11.143Z,13.73
2023-03-04T22:54:42.673Z,14.23
2023-03-04T22:57:14.176Z,13.77
2023-03-04T22:59:45.652Z,14.70
2023-03-04T23:02:17.481Z,14.10
2023-03-04T23:04:49.003Z,15.30
2023-03-04T23:07:20.516Z,16.40
2023-03-04T23:09:51.967Z,16.20
2023-03-04T23:12:23.620Z,15.00
2023-03-04T23:14:55.183Z,15.52
2023-03-04T23:17:26.882Z,15.20
2023-03-04T23:19:58.371Z,16.10
2023-03-04T23:22:30.412Z,15.57
2023-03-04T23:25:01.860Z,15.60
2023-03-04T23:27:33.406Z,15.73
2023-03-04T23:30:07.512Z,15.80
2023-03-04T23:32:39.051Z,17.08
2023-03-04T23:35:11.037Z,15.25
2023-03-04T23:37:42.617Z,13.85
2023-03-04T23:40:14.144Z,14.90
2023-03-04T23:42:45.841Z,15.30
2023-03-04T23:45:17.497Z,14.35
2023-03-04T23:47:49.075Z,17.50
2023-03-04T23:50:20.654Z,17.48
2023-03-04T23:52:52.285Z,16.15
2023-03-04T23:55:23.833Z,14.93
2023-03-04T23:57:55.358Z,14.53
